sensor_id;sensor_type;location;lat;lon;timestamp;pressure;altitude;pressure_sealevel;temperature;humidity
31088;BME280;17745;55.914;37.554;2023-04-01T00:01:04;97712.72;;;4.81;61.16
31088;BME280;17745;55.914;37.554;2023-04-01T00:03:38;97712.13;;;4.79;61.21
31088;BME280;17745;55.914;37.554;2023-04-01T00:06:06;97712.19;;;4.84;61.19
31088;BME280;17745;55.914;37.554;2023-04-01T00:08:35;97715.91;;;4.89;61.14
31088;BME280;17745;55.914;37.554;2023-04-01T00:11:03;97715.69;;;4.95;61.06
31088;BME280;17745;55.914;37.554;2023-04-01T00:13:31;97720.13;;;4.95;61.02
31088;BME280;17745;55.914;37.554;2023-04-01T00:15:59;97720.63;;;4.92;61.02
31088;BME280;17745;55.914;37.554;2023-04-01T00:18:27;97712.75;;;4.92;61.08
31088;BME280;17745;55.914;37.554;2023-04-01T00:20:55;97711.19;;;4.91;61.09
31088;BME280;17745;55.914;37.554;2023-04-01T00:23:22;97716.66;;;4.89;61.20
31088;BME280;17745;55.914;37.554;2023-04-01T00:25:52;97709.59;;;4.90;61.26
31088;BME280;17745;55.914;37.554;2023-04-01T00:28:19;97715.09;;;4.88;61.27
31088;BME280;17745;55.914;37.554;2023-04-01T00:30:47;97704.34;;;4.84;61.24
31088;BME280;17745;55.914;37.554;2023-04-01T00:33:15;97703.25;;;4.80;61.24
31088;BME280;17745;55.914;37.554;2023-04-01T00:35:43;97706.91;;;4.79;61.27
31088;BME280;17745;55.914;37.554;2023-04-01T00:38:11;97700.06;;;4.78;61.30
31088;BME280;17745;55.914;37.554;2023-04-01T00:40:41;97703.50;;;4.79;61.37
31088;BME280;17745;55.914;37.554;2023-04-01T00:43:12;97706.66;;;4.81;61.43
31088;BME280;17745;55.914;37.554;2023-04-01T00:45:43;97701.19;;;4.82;61.33
31088;BME280;17745;55.914;37.554;2023-04-01T00:48:13;97708.00;;;4.83;61.26
31088;BME280;17745;55.914;37.554;2023-04-01T00:50:49;97699.09;;;4.84;61.24
31088;BME280;17745;55.914;37.554;2023-04-01T00:53:19;97691.47;;;4.83;61.22
31088;BME280;17745;55.914;37.554;2023-04-01T00:55:50;97697.53;;;4.89;61.23
31088;BME280;17745;55.914;37.554;2023-04-01T00:58:25;97696.72;;;4.88;61.19
31088;BME280;17745;55.914;37.554;2023-04-01T01:00:59;97694.91;;;4.89;61.24
31088;BME280;17745;55.914;37.554;2023-04-01T01:03:28;97693.38;;;4.93;61.24
31088;BME280;17745;55.914;37.554;2023-04-01T01:06:07;97692.81;;;4.91;61.25
31088;BME280;17745;55.914;37.554;2023-04-01T01:09:07;97690.19;;;4.91;61.38
31088;BME280;17745;55.914;37.554;2023-04-01T01:11:39;97689.69;;;4.94;61.40
31088;BME280;17745;55.914;37.554;2023-04-01T01:14:19;97693.16;;;4.99;61.38
31088;BME280;17745;55.914;37.554;2023-04-01T01:16:53;97693.44;;;5.03;61.42
31088;BME280;17745;55.914;37.554;2023-04-01T01:19:40;97688.12;;;4.93;61.34
31088;BME280;17745;55.914;37.554;2023-04-01T01:22:23;97697.06;;;4.97;61.44
31088;BME280;17745;55.914;37.554;2023-04-01T01:25:16;97702.56;;;4.95;61.50
31088;BME280;17745;55.914;37.554;2023-04-01T01:27:56;97697.31;;;4.95;61.40
31088;BME280;17745;55.914;37.554;2023-04-01T01:30:36;97702.56;;;4.95;61.40
31088;BME280;17745;55.914;37.554;2023-04-01T01:33:45;97701.22;;;4.93;61.51
31088;BME280;17745;55.914;37.554;2023-04-01T01:36:19;97707.00;;;4.95;61.46
31088;BME280;17745;55.914;37.554;2023-04-01T01:38:48;97694.69;;;4.90;61.40
31088;BME280;17745;55.914;37.554;2023-04-01T01:41:20;97701.75;;;4.90;61.39
31088;BME280;17745;55.914;37.554;2023-04-01T01:43:50;97699.91;;;4.90;61.36
31088;BME280;17745;55.914;37.554;2023-04-01T01:46:23;97701.50;;;4.91;61.39
31088;BME280;17745;55.914;37.554;2023-04-01T01:48:53;97701.22;;;4.93;61.40
31088;BME280;17745;55.914;37.554;2023-04-01T01:51:24;97707.28;;;4.93;61.27
31088;BME280;17745;55.914;37.554;2023-04-01T01:53:54;97699.13;;;4.90;61.29
31088;BME280;17745;55.914;37.554;2023-04-01T01:56:24;97700.16;;;4.89;61.27
31088;BME280;17745;55.914;37.554;2023-04-01T01:58:57;97700.16;;;4.89;61.32
31088;BME280;17745;55.914;37.554;2023-04-01T02:01:30;97702.53;;;4.90;61.35
31088;BME280;17745;55.914;37.554;2023-04-01T02:04:00;97695.97;;;4.93;61.37
31088;BME280;17745;55.914;37.554;2023-04-01T02:06:32;97706.22;;;4.94;61.44
31088;BME280;17745;55.914;37.554;2023-04-01T02:09:04;97704.69;;;4.98;61.59
31088;BME280;17745;55.914;37.554;2023-04-01T02:11:37;97696.06;;;5.03;61.69
31088;BME280;17745;55.914;37.554;2023-04-01T02:14:10;97698.44;;;5.10;61.85
31088;BME280;17745;55.914;37.554;2023-04-01T02:17:00;97695.34;;;5.18;61.88
31088;BME280;17745;55.914;37.554;2023-04-01T02:19:33;97696.69;;;5.21;61.79
31088;BME280;17745;55.914;37.554;2023-04-01T02:22:07;97703.47;;;5.17;61.73
31088;BME280;17745;55.914;37.554;2023-04-01T02:24:37;97710.56;;;5.16;61.84
31088;BME280;17745;55.914;37.554;2023-04-01T02:27:06;97709.75;;;5.15;61.80
31088;BME280;17745;55.914;37.554;2023-04-01T02:29:34;97710.56;;;5.16;61.84
31088;BME280;17745;55.914;37.554;2023-04-01T02:32:02;97711.88;;;5.19;61.86
31088;BME280;17745;55.914;37.554;2023-04-01T02:34:30;97721.31;;;5.20;61.81
31088;BME280;17745;55.914;37.554;2023-04-01T02:37:01;97718.69;;;5.14;61.84
31088;BME280;17745;55.914;37.554;2023-04-01T02:39:30;97718.41;;;5.11;61.91
31088;BME280;17745;55.914;37.554;2023-04-01T02:41:58;97717.38;;;5.12;61.94
31088;BME280;17745;55.914;37.554;2023-04-01T02:44:26;97720.00;;;5.12;61.96
31088;BME280;17745;55.914;37.554;2023-04-01T02:46:53;97728.94;;;5.16;61.98
31088;BME280;17745;55.914;37.554;2023-04-01T02:49:21;97723.94;;;5.14;61.90
31088;BME280;17745;55.914;37.554;2023-04-01T02:51:49;97725.25;;;5.12;61.89
31088;BME280;17745;55.914;37.554;2023-04-01T02:54:17;97728.34;;;5.09;61.95
31088;BME280;17745;55.914;37.554;2023-04-01T02:56:47;97722.84;;;5.10;61.90
31088;BME280;17745;55.914;37.554;2023-04-01T02:59:14;97725.47;;;5.10;61.82
31088;BME280;17745;55.914;37.554;2023-04-01T03:01:42;97727.03;;;5.06;61.77
31088;BME280;17745;55.914;37.554;2023-04-01T03:04:10;97722.28;;;5.03;62.00
31088;BME280;17745;55.914;37.554;2023-04-01T03:06:37;97724.91;;;5.03;61.98
31088;BME280;17745;55.914;37.554;2023-04-01T03:09:05;97724.91;;;5.03;61.99
31088;BME280;17745;55.914;37.554;2023-04-01T03:11:33;97722.28;;;5.03;62.09
31088;BME280;17745;55.914;37.554;2023-04-01T03:14:03;97722.28;;;5.03;62.08
31088;BME280;17745;55.914;37.554;2023-04-01T03:16:30;97730.16;;;5.03;62.04
31088;BME280;17745;55.914;37.554;2023-04-01T03:18:58;97726.50;;;5.04;62.10
31088;BME280;17745;55.914;37.554;2023-04-01T03:21:28;97734.16;;;5.11;62.11
31088;BME280;17745;55.914;37.554;2023-04-01T03:23:57;97722.94;;;5.21;62.09
31088;BME280;17745;55.914;37.554;2023-04-01T03:26:25;97738.72;;;5.31;61.96
31088;BME280;17745;55.914;37.554;2023-04-01T03:28:55;97731.69;;;5.37;61.78
31088;BME280;17745;55.914;37.554;2023-04-01T03:31:24;97735.91;;;5.43;61.73
31088;BME280;17745;55.914;37.554;2023-04-01T03:33:52;97727.50;;;5.46;61.68
31088;BME280;17745;55.914;37.554;2023-04-01T03:36:23;97739.88;;;5.51;61.70
31088;BME280;17745;55.914;37.554;2023-04-01T03:38:51;97733.06;;;5.55;61.57
31088;BME280;17745;55.914;37.554;2023-04-01T03:41:23;97740.19;;;5.60;61.57
31088;BME280;17745;55.914;37.554;2023-04-01T03:43:59;97745.72;;;5.63;61.56
31088;BME280;17745;55.914;37.554;2023-04-01T03:46:29;97752.56;;;5.64;61.62
31088;BME280;17745;55.914;37.554;2023-04-01T03:48:57;97756.75;;;5.65;61.61
31088;BME280;17745;55.914;37.554;2023-04-01T03:51:24;97759.38;;;5.65;61.53
31088;BME280;17745;55.914;37.554;2023-04-01T03:53:53;97766.22;;;5.66;61.64
31088;BME280;17745;55.914;37.554;2023-04-01T03:56:21;97765.69;;;5.69;61.52
31088;BME280;17745;55.914;37.554;2023-04-01T03:58:49;97767.28;;;5.70;61.56
31088;BME280;17745;55.914;37.554;2023-04-01T04:01:19;97769.09;;;5.70;61.58
31088;BME280;17745;55.914;37.554;2023-04-01T04:03:50;97772.28;;;5.72;61.65
31088;BME280;17745;55.914;37.554;2023-04-01T04:06:18;97776.50;;;5.73;61.64
31088;BME280;17745;55.914;37.554;2023-04-01T04:08:48;97770.44;;;5.72;61.65
31088;BME280;17745;55.914;37.554;2023-04-01T04:11:17;97774.09;;;5.71;61.66
31088;BME280;17745;55.914;37.554;2023-04-01T04:13:46;97778.84;;;5.75;61.63
31088;BME280;17745;55.914;37.554;2023-04-01T04:16:15;97778.59;;;5.76;61.69
31088;BME280;17745;55.914;37.554;2023-04-01T04:18:44;97773.59;;;5.80;61.74
31088;BME280;17745;55.914;37.554;2023-04-01T04:21:18;97786.28;;;5.88;61.74
31088;BME280;17745;55.914;37.554;2023-04-01T04:23:46;97781.84;;;5.94;61.77
31088;BME280;17745;55.914;37.554;2023-04-01T04:26:15;97788.38;;;5.96;61.81
31088;BME280;17745;55.914;37.554;2023-04-01T04:28:44;97788.69;;;6.00;61.96
31088;BME280;17745;55.914;37.554;2023-04-01T04:31:18;97788.72;;;6.10;62.02
31088;BME280;17745;55.914;37.554;2023-04-01T04:33:46;97783.28;;;6.27;61.90
31088;BME280;17745;55.914;37.554;2023-04-01T04:36:16;97788.03;;;6.36;61.73
31088;BME280;17745;55.914;37.554;2023-04-01T04:38:44;97793.56;;;6.39;61.68
31088;BME280;17745;55.914;37.554;2023-04-01T04:41:14;97796.47;;;6.43;61.66
31088;BME280;17745;55.914;37.554;2023-04-01T04:43:49;97800.69;;;6.49;61.61
31088;BME280;17745;55.914;37.554;2023-04-01T04:46:17;97798.31;;;6.48;61.48
31088;BME280;17745;55.914;37.554;2023-04-01T04:48:46;97797.53;;;6.47;61.60
31088;BME280;17745;55.914;37.554;2023-04-01T04:51:17;97799.09;;;6.53;61.43
31088;BME280;17745;55.914;37.554;2023-04-01T04:53:46;97799.91;;;6.59;61.24
31088;BME280;17745;55.914;37.554;2023-04-01T04:56:17;97800.69;;;6.60;61.30
31088;BME280;17745;55.914;37.554;2023-04-01T04:58:46;97804.41;;;6.64;61.07
31088;BME280;17745;55.914;37.554;2023-04-01T05:01:16;97812.81;;;6.66;60.97
31088;BME280;17745;55.914;37.554;2023-04-01T05:03:44;97812.00;;;6.65;60.80
31088;BME280;17745;55.914;37.554;2023-04-01T05:06:17;97813.59;;;6.71;60.85
31088;BME280;17745;55.914;37.554;2023-04-01T05:08:46;97821.50;;;6.82;60.74
31088;BME280;17745;55.914;37.554;2023-04-01T05:11:16;97827.56;;;6.93;60.53
31088;BME280;17745;55.914;37.554;2023-04-01T05:13:44;97823.91;;;7.04;60.46
31088;BME280;17745;55.914;37.554;2023-04-01T05:16:13;97829.16;;;7.14;60.33
31088;BME280;17745;55.914;37.554;2023-04-01T05:18:42;97831.81;;;7.25;60.22
31088;BME280;17745;55.914;37.554;2023-04-01T05:21:11;97824.94;;;7.29;59.82
31088;BME280;17745;55.914;37.554;2023-04-01T05:23:42;97832.84;;;7.29;59.72
31088;BME280;17745;55.914;37.554;2023-04-01T05:26:12;97833.09;;;7.38;59.74
31088;BME280;17745;55.914;37.554;2023-04-01T05:28:41;97844.94;;;7.51;59.75
31088;BME280;17745;55.914;37.554;2023-04-01T05:31:13;97832.56;;;7.56;59.68
31088;BME280;17745;55.914;37.554;2023-04-01T05:33:41;97837.53;;;7.68;59.92
31088;BME280;17745;55.914;37.554;2023-04-01T05:36:10;97830.66;;;7.78;59.78
31088;BME280;17745;55.914;37.554;2023-04-01T05:38:43;97828.78;;;7.83;59.70
31088;BME280;17745;55.914;37.554;2023-04-01T05:41:12;97831.41;;;7.89;59.55
31088;BME280;17745;55.914;37.554;2023-04-01T05:43:42;97828.25;;;7.86;59.33
31088;BME280;17745;55.914;37.554;2023-04-01T05:46:22;97832.75;;;7.86;59.46
31088;BME280;17745;55.914;37.554;2023-04-01T05:48:50;97834.03;;;7.89;59.42
31088;BME280;17745;55.914;37.554;2023-04-01T05:51:19;97834.84;;;7.84;59.29
31088;BME280;17745;55.914;37.554;2023-04-01T05:53:48;97840.12;;;7.79;59.24
31088;BME280;17745;55.914;37.554;2023-04-01T05:56:16;97836.19;;;7.71;59.20
31088;BME280;17745;55.914;37.554;2023-04-01T05:58:46;97850.19;;;7.56;59.59
31088;BME280;17745;55.914;37.554;2023-04-01T06:01:21;97850.97;;;7.51;59.81
31088;BME280;17745;55.914;37.554;2023-04-01T06:03:49;97853.38;;;7.48;59.86
31088;BME280;17745;55.914;37.554;2023-04-01T06:06:23;97869.16;;;7.53;59.68
31088;BME280;17745;55.914;37.554;2023-04-01T06:08:56;97859.94;;;7.55;59.62
31088;BME280;17745;55.914;37.554;2023-04-01T06:11:32;97859.16;;;7.50;59.60
31088;BME280;17745;55.914;37.554;2023-04-01T06:14:12;97863.62;;;7.44;59.44
31088;BME280;17745;55.914;37.554;2023-04-01T06:16:58;97872.06;;;7.36;59.57
31088;BME280;17745;55.914;37.554;2023-04-01T06:19:37;97861.53;;;7.36;59.52
31088;BME280;17745;55.914;37.554;2023-04-01T06:25:45;97866.25;;;7.65;59.33
31088;BME280;17745;55.914;37.554;2023-04-01T06:28:34;97860.69;;;7.77;58.88
31088;BME280;17745;55.914;37.554;2023-04-01T06:31:11;97856.97;;;7.83;59.07
31088;BME280;17745;55.914;37.554;2023-04-01T06:33:53;97857.44;;;8.06;58.88
31088;BME280;17745;55.914;37.554;2023-04-01T06:36:34;97861.28;;;8.34;58.48
31088;BME280;17745;55.914;37.554;2023-04-01T06:39:21;97866.16;;;8.67;58.02
31088;BME280;17745;55.914;37.554;2023-04-01T06:42:17;97867.56;;;8.99;57.66
31088;BME280;17745;55.914;37.554;2023-04-01T06:44:56;97873.38;;;9.36;57.47
31088;BME280;17745;55.914;37.554;2023-04-01T06:47:57;97871.81;;;9.64;57.41
31088;BME280;17745;55.914;37.554;2023-04-01T06:50:49;97872.72;;;9.79;57.45
31088;BME280;17745;55.914;37.554;2023-04-01T06:53:29;97882.81;;;10.01;57.12
31088;BME280;17745;55.914;37.554;2023-04-01T06:56:11;97880.22;;;10.20;56.60
31088;BME280;17745;55.914;37.554;2023-04-01T06:58:46;97875.94;;;10.24;56.34
31088;BME280;17745;55.914;37.554;2023-04-01T07:01:19;97883.34;;;10.03;55.63
31088;BME280;17745;55.914;37.554;2023-04-01T07:03:51;97893.44;;;9.96;55.82
31088;BME280;17745;55.914;37.554;2023-04-01T07:06:25;97895.75;;;10.02;56.25
31088;BME280;17745;55.914;37.554;2023-04-01T07:08:59;97900.38;;;10.16;56.08
31088;BME280;17745;55.914;37.554;2023-04-01T07:11:35;97891.63;;;10.40;55.97
31088;BME280;17745;55.914;37.554;2023-04-01T07:14:13;97898.00;;;10.63;55.60
31088;BME280;17745;55.914;37.554;2023-04-01T07:16:47;97890.84;;;10.64;54.12
31088;BME280;17745;55.914;37.554;2023-04-01T07:19:22;97892.47;;;10.60;54.56
31088;BME280;17745;55.914;37.554;2023-04-01T07:21:55;97893.22;;;10.84;54.68
31088;BME280;17745;55.914;37.554;2023-04-01T07:24:29;97892.16;;;11.05;54.13
31088;BME280;17745;55.914;37.554;2023-04-01T07:26:59;97889.09;;;11.11;53.43
31088;BME280;17745;55.914;37.554;2023-04-01T07:29:31;97897.72;;;11.03;53.37
31088;BME280;17745;55.914;37.554;2023-04-01T07:32:18;97893.91;;;11.09;53.45
31088;BME280;17745;55.914;37.554;2023-04-01T07:35:05;97901.44;;;11.02;52.37
31088;BME280;17745;55.914;37.554;2023-04-01T07:37:39;97901.44;;;11.02;52.56
31088;BME280;17745;55.914;37.554;2023-04-01T07:40:19;97895.13;;;11.17;52.90
31088;BME280;17745;55.914;37.554;2023-04-01T07:43:07;97903.66;;;11.14;52.98
31088;BME280;17745;55.914;37.554;2023-04-01T07:45:48;97902.56;;;11.15;53.06
31088;BME280;17745;55.914;37.554;2023-04-01T07:48:23;97905.56;;;11.27;52.97
31088;BME280;17745;55.914;37.554;2023-04-01T07:51:00;97908.22;;;11.27;53.12
31088;BME280;17745;55.914;37.554;2023-04-01T07:53:34;97907.16;;;11.28;52.91
31088;BME280;17745;55.914;37.554;2023-04-01T07:56:07;97912.41;;;11.14;53.00
31088;BME280;17745;55.914;37.554;2023-04-01T07:58:47;97921.13;;;10.96;53.58
31088;BME280;17745;55.914;37.554;2023-04-01T08:01:33;97916.47;;;10.87;53.41
31088;BME280;17745;55.914;37.554;2023-04-01T08:04:23;97916.09;;;10.94;53.55
31088;BME280;17745;55.914;37.554;2023-04-01T08:07:05;97919.31;;;11.10;53.26
31088;BME280;17745;55.914;37.554;2023-04-01T08:09:45;97926.94;;;11.50;52.74
31088;BME280;17745;55.914;37.554;2023-04-01T08:12:33;97920.63;;;11.79;51.09
31088;BME280;17745;55.914;37.554;2023-04-01T08:15:15;97926.44;;;11.81;51.02
31088;BME280;17745;55.914;37.554;2023-04-01T08:18:01;97923.66;;;12.06;50.84
31088;BME280;17745;55.914;37.554;2023-04-01T08:20:37;97933.09;;;12.12;50.13
31088;BME280;17745;55.914;37.554;2023-04-01T08:23:11;97928.91;;;11.78;51.00
31088;BME280;17745;55.914;37.554;2023-04-01T08:25:46;97931.12;;;11.70;51.23
31088;BME280;17745;55.914;37.554;2023-04-01T08:28:23;97936.03;;;11.63;51.23
31088;BME280;17745;55.914;37.554;2023-04-01T08:30:56;97937.78;;;11.54;49.35
31088;BME280;17745;55.914;37.554;2023-04-01T08:33:29;97936.09;;;11.58;49.86
31088;BME280;17745;55.914;37.554;2023-04-01T08:36:05;97934.06;;;11.69;48.90
31088;BME280;17745;55.914;37.554;2023-04-01T08:38:43;97940.84;;;11.75;48.80
31088;BME280;17745;55.914;37.554;2023-04-01T08:52:39;97944.72;;;11.83;48.58
31088;BME280;17745;55.914;37.554;2023-04-01T08:56:01;97950.75;;;11.69;47.87
31088;BME280;17745;55.914;37.554;2023-04-01T09:06:38;97948.00;;;10.65;48.68
31088;BME280;17745;55.914;37.554;2023-04-01T09:16:42;97957.75;;;9.91;49.87
31088;BME280;17745;55.914;37.554;2023-04-01T09:20:04;97965.06;;;9.99;49.83
31088;BME280;17745;55.914;37.554;2023-04-01T09:23:39;97965.31;;;10.27;49.50
31088;BME280;17745;55.914;37.554;2023-04-01T09:27:04;97969.91;;;10.46;49.10
31088;BME280;17745;55.914;37.554;2023-04-01T09:34:00;97971.78;;;11.08;49.00
31088;BME280;17745;55.914;37.554;2023-04-01T09:37:26;97968.91;;;11.62;48.47
31088;BME280;17745;55.914;37.554;2023-04-01T09:40:54;97973.09;;;12.29;47.67
31088;BME280;17745;55.914;37.554;2023-04-01T09:44:14;97971.84;;;12.55;46.72
31088;BME280;17745;55.914;37.554;2023-04-01T09:47:44;97980.69;;;12.50;47.07
31088;BME280;17745;55.914;37.554;2023-04-01T09:54:26;97976.34;;;12.40;47.05
31088;BME280;17745;55.914;37.554;2023-04-01T10:15:27;97989.63;;;12.26;45.96
31088;BME280;17745;55.914;37.554;2023-04-01T10:21:35;98004.03;;;12.06;45.56
31088;BME280;17745;55.914;37.554;2023-04-01T10:25:05;98008.25;;;11.88;45.33
31088;BME280;17745;55.914;37.554;2023-04-01T10:35:28;98004.22;;;11.77;44.42
31088;BME280;17745;55.914;37.554;2023-04-01T10:38:30;98013.47;;;12.12;43.92
31088;BME280;17745;55.914;37.554;2023-04-01T10:41:27;98016.34;;;12.30;43.79
31088;BME280;17745;55.914;37.554;2023-04-01T10:49:25;98019.50;;;12.46;43.01
31088;BME280;17745;55.914;37.554;2023-04-01T11:07:47;98024.22;;;13.05;41.68
31088;BME280;17745;55.914;37.554;2023-04-01T11:10:55;98027.44;;;13.16;41.57
31088;BME280;17745;55.914;37.554;2023-04-01T11:14:08;98017.88;;;13.43;40.90
31088;BME280;17745;55.914;37.554;2023-04-01T11:17:29;98024.47;;;13.68;40.59
31088;BME280;17745;55.914;37.554;2023-04-01T11:24:43;98025.50;;;14.36;40.03
31088;BME280;17745;55.914;37.554;2023-04-01T11:27:49;98031.59;;;15.17;38.28
31088;BME280;17745;55.914;37.554;2023-04-01T11:30:41;98026.59;;;15.77;36.63
31088;BME280;17745;55.914;37.554;2023-04-01T11:33:45;98019.72;;;16.41;35.71
31088;BME280;17745;55.914;37.554;2023-04-01T11:36:48;98021.94;;;17.08;33.92
31088;BME280;17745;55.914;37.554;2023-04-01T11:43:34;98026.03;;;17.48;32.84
31088;BME280;17745;55.914;37.554;2023-04-01T11:46:33;98036.03;;;16.40;34.15
31088;BME280;17745;55.914;37.554;2023-04-01T11:49:33;98042.91;;;15.84;35.05
31088;BME280;17745;55.914;37.554;2023-04-01T11:52:57;98036.63;;;15.80;35.32
31088;BME280;17745;55.914;37.554;2023-04-01T11:56:44;98036.94;;;15.79;34.84
31088;BME280;17745;55.914;37.554;2023-04-01T12:55:55;98057.13;;;13.83;35.17
31088;BME280;17745;55.914;37.554;2023-04-01T12:59:18;98055.50;;;13.73;35.49
31088;BME280;17745;55.914;37.554;2023-04-01T13:02:33;98058.59;;;13.89;35.33
31088;BME280;17745;55.914;37.554;2023-04-01T13:06:49;98067.28;;;14.04;35.44
31088;BME280;17745;55.914;37.554;2023-04-01T13:10:30;98063.16;;;13.97;35.54
31088;BME280;17745;55.914;37.554;2023-04-01T13:21:18;98074.75;;;13.56;36.43
31088;BME280;17745;55.914;37.554;2023-04-01T13:24:35;98075.94;;;13.50;36.61
31088;BME280;17745;55.914;37.554;2023-04-01T13:27:37;98075.56;;;13.42;36.79
31088;BME280;17745;55.914;37.554;2023-04-01T13:30:49;98075.97;;;13.22;36.94
31088;BME280;17745;55.914;37.554;2023-04-01T14:10:21;98112.47;;;12.74;36.73
31088;BME280;17745;55.914;37.554;2023-04-01T14:13:34;98128.91;;;12.76;36.57
31088;BME280;17745;55.914;37.554;2023-04-01T14:20:06;98120.63;;;12.64;36.36
31088;BME280;17745;55.914;37.554;2023-04-01T16:10:47;98250.38;;;10.86;45.46
31088;BME280;17745;55.914;37.554;2023-04-01T16:14:08;98252.06;;;10.71;46.20
31088;BME280;17745;55.914;37.554;2023-04-01T16:17:50;98250.84;;;10.58;46.82
31088;BME280;17745;55.914;37.554;2023-04-01T16:21:27;98260.19;;;10.46;47.36
31088;BME280;17745;55.914;37.554;2023-04-01T16:25:17;98265.50;;;10.46;47.23
31088;BME280;17745;55.914;37.554;2023-04-01T16:57:48;98286.75;;;10.75;48.80
31088;BME280;17745;55.914;37.554;2023-04-01T17:01:14;98284.81;;;10.81;48.82
31088;BME280;17745;55.914;37.554;2023-04-01T17:09:21;98287.13;;;10.93;48.93
31088;BME280;17745;55.914;37.554;2023-04-01T17:12:03;98289.50;;;10.94;49.16
31088;BME280;17745;55.914;37.554;2023-04-01T17:24:09;98300.84;;;11.00;49.41
31088;BME280;17745;55.914;37.554;2023-04-01T17:32:26;98290.09;;;10.86;50.09
31088;BME280;17745;55.914;37.554;2023-04-01T19:41:42;98397.59;;;10.16;54.11
31088;BME280;17745;55.914;37.554;2023-04-01T19:48:34;98397.38;;;10.07;54.58
31088;BME280;17745;55.914;37.554;2023-04-01T19:51:55;98406.09;;;10.02;54.78
31088;BME280;17745;55.914;37.554;2023-04-01T19:55:30;98398.19;;;9.97;54.94
31088;BME280;17745;55.914;37.554;2023-04-01T20:08:42;98414.06;;;9.82;55.51
31088;BME280;17745;55.914;37.554;2023-04-01T20:11:57;98409.56;;;9.87;55.53
31088;BME280;17745;55.914;37.554;2023-04-01T20:14:45;98412.72;;;10.00;55.29
31088;BME280;17745;55.914;37.554;2023-04-01T20:17:45;98414.03;;;10.13;55.17
31088;BME280;17745;55.914;37.554;2023-04-01T20:31:41;98410.56;;;10.12;55.67
31088;BME280;17745;55.914;37.554;2023-04-01T20:38:17;98405.25;;;10.23;55.59
31088;BME280;17745;55.914;37.554;2023-04-01T20:41:27;98412.12;;;10.24;55.80
31088;BME280;17745;55.914;37.554;2023-04-01T20:44:37;98402.63;;;10.23;55.75
31088;BME280;17745;55.914;37.554;2023-04-01T20:48:11;98404.94;;;10.29;55.71
31088;BME280;17745;55.914;37.554;2023-04-01T20:51:12;98403.34;;;10.39;55.68
31088;BME280;17745;55.914;37.554;2023-04-01T20:54:38;98404.69;;;10.47;55.47
31088;BME280;17745;55.914;37.554;2023-04-01T21:02:47;98400.91;;;10.63;55.28
31088;BME280;17745;55.914;37.554;2023-04-01T21:05:49;98407.56;;;10.55;55.42
31088;BME280;17745;55.914;37.554;2023-04-01T21:08:31;98411.81;;;10.51;55.60
31088;BME280;17745;55.914;37.554;2023-04-01T21:11:10;98401.22;;;10.51;55.75
31088;BME280;17745;55.914;37.554;2023-04-01T21:13:58;98407.31;;;10.47;55.76
31088;BME280;17745;55.914;37.554;2023-04-01T21:16:41;98417.38;;;10.50;55.84
31088;BME280;17745;55.914;37.554;2023-04-01T21:19:35;98425.56;;;10.53;55.87
31088;BME280;17745;55.914;37.554;2023-04-01T21:22:29;98419.69;;;10.62;55.80
31088;BME280;17745;55.914;37.554;2023-04-01T21:28:20;98429.94;;;10.79;55.60
31088;BME280;17745;55.914;37.554;2023-04-01T21:31:18;98435.22;;;10.79;55.56
31088;BME280;17745;55.914;37.554;2023-04-01T21:34:02;98430.72;;;10.79;55.64
31088;BME280;17745;55.914;37.554;2023-04-01T21:36:46;98442.94;;;10.75;55.57
31088;BME280;17745;55.914;37.554;2023-04-01T21:39:43;98447.16;;;10.71;55.81
31088;BME280;17745;55.914;37.554;2023-04-01T21:42:25;98431.84;;;10.68;55.79
31088;BME280;17745;55.914;37.554;2023-04-01T21:45:18;98442.69;;;10.71;55.85
31088;BME280;17745;55.914;37.554;2023-04-01T21:51:32;98443.47;;;10.77;55.76
31088;BME280;17745;55.914;37.554;2023-04-01T22:00:43;98443.50;;;10.72;55.90
31088;BME280;17745;55.914;37.554;2023-04-01T22:03:48;98447.97;;;10.71;55.78
31088;BME280;17745;55.914;37.554;2023-04-01T22:06:28;98440.00;;;10.77;55.82
31088;BME280;17745;55.914;37.554;2023-04-01T22:09:11;98446.66;;;10.74;55.84
31088;BME280;17745;55.914;37.554;2023-04-01T22:11:47;98447.16;;;10.76;55.76
31088;BME280;17745;55.914;37.554;2023-04-01T22:14:27;98453.75;;;10.79;55.73
31088;BME280;17745;55.914;37.554;2023-04-01T22:17:09;98452.41;;;10.86;55.74
31088;BME280;17745;55.914;37.554;2023-04-01T22:19:45;98460.00;;;10.98;55.71
31088;BME280;17745;55.914;37.554;2023-04-01T22:22:22;98453.66;;;11.05;55.56
31088;BME280;17745;55.914;37.554;2023-04-01T22:25:02;98451.22;;;11.08;55.51
31088;BME280;17745;55.914;37.554;2023-04-01T22:28:27;98437.50;;;11.01;55.51
31088;BME280;17745;55.914;37.554;2023-04-01T22:31:44;98451.50;;;11.07;55.59
31088;BME280;17745;55.914;37.554;2023-04-01T22:34:44;98447.78;;;11.08;55.46
31088;BME280;17745;55.914;37.554;2023-04-01T22:37:23;98448.06;;;11.06;55.57
31088;BME280;17745;55.914;37.554;2023-04-01T22:40:08;98449.13;;;11.05;55.67
31088;BME280;17745;55.914;37.554;2023-04-01T22:42:42;98452.28;;;11.07;55.50
31088;BME280;17745;55.914;37.554;2023-04-01T22:45:25;98447.28;;;11.06;55.67
31088;BME280;17745;55.914;37.554;2023-04-01T22:47:59;98444.63;;;11.06;55.71
31088;BME280;17745;55.914;37.554;2023-04-01T22:50:37;98451.25;;;11.03;55.75
31088;BME280;17745;55.914;37.554;2023-04-01T22:53:17;98454.16;;;11.01;55.79
31088;BME280;17745;55.914;37.554;2023-04-01T22:55:48;98447.03;;;11.02;55.83
31088;BME280;17745;55.914;37.554;2023-04-01T22:58:20;98460.00;;;10.98;56.05
31088;BME280;17745;55.914;37.554;2023-04-01T23:00:51;98459.50;;;10.96;56.01
31088;BME280;17745;55.914;37.554;2023-04-01T23:03:24;98460.84;;;10.94;56.15
31088;BME280;17745;55.914;37.554;2023-04-01T23:05:55;98461.37;;;10.96;56.24
31088;BME280;17745;55.914;37.554;2023-04-01T23:08:52;98466.12;;;10.99;56.20